Airfield :
LOGIN :

Register | Disclaimer

   EN    FR    IT 

 










Legend :    VFR   Marginal VFR   IFR   Intensive IFR   Very Intensive IFR
Visi :
Ceiling :
>= 8 km
>= 3000ft
5 to 8 km
1000 to 3000 ft
1500m to 5 km
500 to 1000 ft
800 to 1500m
200 to 500 ft
< 800m
< 200 ft
Symbols :   Thunderstorms  Fog  Heavy snow  Heavy precipitations  Wind > 20 kt
SIGMETs :     Misc.  Thunderstorms  Icing  Turbulence  Mountain Waves  Volcanic Ashes







- Airport Elevation : 1079 ft


ETIK - Illesheim Air Base

CURRENT METAR :
  • 220256Z AUTO 23005KT 9999 CLR 06/04 A3021 RMK AO2 SLP231 T00590041 51005 $

EXPIRED METARs :
  • 220156Z AUTO 26004KT 9999 CLR 06/04 A3021 RMK AO2 SLP230 T00580036 $
  • 220056Z AUTO 29006KT 9999 CLR 09/04 A3020 RMK AO2 SLP222 T00880038 $

TAF TAF ETIK
Valid from the 21 at 21:00 until the 23 at 03:00 UTC


212103Z 2121/2303 30009KT 9999 FEW030 QNH3006INS
BECMG 2207/2208 27012G18KT 9999 BKN030 QNH3008INS
BECMG 2211/2212 29015G25KT 9000 -SHRA BKN030 QNH3008INS
BECMG 2216/2217 29012KT 9999 NSW SCT030 BKN050 QNH3012INS
BECMG 2220/2221 28006KT 9999 SCT030 BKN040 QNH3015INS TX16/2214Z TN07/2204Z
No reported NOTAMs for that airfield.



MET'MAP, your aeronautical weather chart ! - Copyright ORBIFLY December 2007 - Disclaimer

ORBIFLY MET'MAP TEAM :

Programming & Development : Alexandra Zaïnal
Concept & Development : Baudouin d'Aumeries
Co-Development & Prog : Marc-Olivier Méhu
Technical & hardware support : Manuel Goepfert

Contact : metmap@orbifly.com




SOURCES & CREDITS :

   NOAA